createdAt,value
2022-09-12T00:02:20.995Z,17.11
2022-09-12T00:05:23.805Z,17.13
2022-09-12T00:08:26.563Z,17.23
2022-09-12T00:11:31.277Z,17.22
2022-09-12T00:14:33.936Z,17.17
2022-09-12T00:17:36.668Z,17.10
2022-09-12T00:20:42.269Z,17.12
2022-09-12T00:23:44.993Z,17.07
2022-09-12T00:26:49.381Z,17.22
2022-09-12T00:29:52.061Z,17.03
2022-09-12T00:32:54.848Z,17.10
2022-09-12T00:35:57.577Z,17.18
2022-09-12T00:39:00.455Z,17.05
2022-09-12T00:42:04.773Z,17.20
2022-09-12T00:45:08.044Z,17.07
2022-09-12T00:48:18.617Z,17.15
2022-09-12T00:51:21.665Z,16.90
2022-09-12T00:54:26.649Z,16.98
2022-09-12T00:57:33.630Z,16.98
2022-09-12T01:00:36.315Z,16.96
2022-09-12T01:03:38.993Z,16.94
2022-09-12T01:06:43.216Z,16.94
2022-09-12T01:09:46.337Z,16.88
2022-09-12T01:12:50.409Z,16.90
2022-09-12T01:15:54.341Z,16.85
2022-09-12T01:19:05.860Z,16.76
2022-09-12T01:22:19.979Z,16.70
2022-09-12T01:25:27.687Z,16.89
2022-09-12T01:28:52.049Z,16.65
2022-09-12T01:32:00.580Z,16.74
2022-09-12T01:35:08.408Z,16.59
2022-09-12T01:38:14.731Z,16.71
2022-09-12T01:41:25.209Z,16.63
2022-09-12T01:44:36.107Z,16.73
2022-09-12T01:47:42.848Z,16.60
2022-09-12T01:50:47.710Z,16.61
2022-09-12T01:53:53.501Z,16.53
2022-09-12T01:56:57.961Z,16.54
2022-09-12T02:00:03.753Z,16.41
2022-09-12T02:03:10.566Z,16.53
2022-09-12T02:06:16.264Z,16.56
2022-09-12T02:09:21.787Z,16.50
2022-09-12T02:12:26.972Z,16.36
2022-09-12T02:15:32.120Z,16.53
2022-09-12T02:18:39.021Z,16.48
2022-09-12T02:21:43.420Z,16.37
2022-09-12T02:24:49.115Z,16.40
2022-09-12T02:27:54.357Z,16.41
2022-09-12T02:31:00.758Z,16.43
2022-09-12T02:34:10.449Z,16.40
2022-09-12T02:37:17.219Z,16.42
2022-09-12T02:40:20.241Z,16.38
2022-09-12T02:43:22.943Z,16.42
2022-09-12T02:46:28.460Z,16.52
2022-09-12T02:49:32.560Z,16.49
2022-09-12T02:52:35.915Z,16.42
2022-09-12T02:55:40.358Z,16.40
2022-09-12T02:58:43.011Z,16.49
2022-09-12T03:02:05.133Z,16.43
2022-09-12T03:05:27.075Z,16.43
2022-09-12T03:08:44.640Z,16.51
2022-09-12T03:11:55.028Z,16.48
2022-09-12T03:15:04.126Z,16.59
2022-09-12T03:18:10.803Z,16.60
2022-09-12T03:21:19.587Z,16.68
2022-09-12T03:24:25.762Z,16.48
2022-09-12T03:27:31.202Z,16.67
2022-09-12T03:30:38.743Z,16.50
2022-09-12T03:33:41.426Z,16.52
2022-09-12T03:36:45.534Z,16.63
2022-09-12T03:39:48.278Z,16.61
2022-09-12T03:42:50.958Z,16.62
2022-09-12T03:45:53.937Z,16.72
2022-09-12T03:48:56.685Z,16.74
2022-09-12T03:52:00.805Z,16.60
2022-09-12T03:55:03.536Z,16.65
2022-09-12T03:58:06.242Z,16.63
2022-09-12T04:01:12.456Z,16.61
2022-09-12T04:04:15.201Z,16.64
2022-09-12T04:07:19.311Z,16.64
2022-09-12T04:10:22.678Z,16.73
2022-09-12T04:13:25.359Z,16.63
2022-09-12T04:16:28.141Z,16.66
2022-09-12T04:19:30.947Z,16.77
2022-09-12T04:22:34.995Z,16.66
2022-09-12T04:25:37.740Z,16.64
2022-09-12T04:28:40.934Z,16.73
2022-09-12T04:31:43.624Z,16.65
2022-09-12T04:34:47.056Z,16.76
2022-09-12T04:37:51.170Z,16.89
2022-09-12T04:40:53.860Z,16.84
2022-09-12T04:43:58.267Z,16.79
2022-09-12T04:47:00.994Z,16.80
2022-09-12T04:50:04.102Z,16.86
2022-09-12T04:53:08.181Z,16.89
2022-09-12T04:56:12.204Z,16.83
2022-09-12T04:59:15.856Z,16.73
2022-09-12T05:02:18.644Z,16.91
2022-09-12T05:05:24.561Z,16.90
2022-09-12T05:08:28.665Z,16.97
2022-09-12T05:11:59.744Z,16.84
2022-09-12T05:14:55.253Z,16.81
2022-09-12T05:17:57.935Z,17.01
2022-09-12T05:21:01.375Z,17.02
2022-09-12T05:24:06.737Z,17.09
2022-09-12T05:27:09.391Z,17.05
2022-09-12T05:30:12.852Z,17.01
2022-09-12T05:33:16.343Z,17.14
2022-09-12T05:36:20.062Z,17.13
2022-09-12T05:39:24.652Z,17.01
2022-09-12T05:42:27.364Z,17.13
2022-09-12T05:45:30.837Z,17.29
2022-09-12T05:48:34.464Z,17.17
2022-09-12T05:51:39.381Z,17.19
2022-09-12T05:54:43.508Z,16.96
2022-09-12T05:57:46.931Z,16.92
2022-09-12T06:00:49.742Z,17.30
2022-09-12T06:03:53.408Z,17.39
2022-09-12T06:06:56.258Z,17.53
2022-09-12T06:10:00.669Z,17.71
2022-09-12T06:13:04.525Z,17.31
2022-09-12T06:16:08.220Z,17.74
2022-09-12T06:19:15.222Z,17.72
2022-09-12T06:22:18.048Z,17.80
2022-09-12T06:25:22.544Z,18.13
2022-09-12T06:28:25.408Z,18.05
2022-09-12T06:31:30.130Z,18.10
2022-09-12T06:34:33.870Z,18.04
2022-09-12T06:37:37.761Z,18.18
2022-09-12T06:40:45.063Z,18.14
2022-09-12T06:43:47.711Z,18.28
2022-09-12T06:46:50.749Z,18.26
2022-09-12T06:49:53.416Z,18.16
2022-09-12T06:52:56.061Z,18.84
2022-09-12T06:56:00.850Z,18.71
2022-09-12T06:59:03.604Z,18.63
2022-09-12T07:02:06.400Z,18.67
2022-09-12T07:05:10.584Z,18.76
2022-09-12T07:08:25.604Z,18.67
2022-09-12T07:11:31.737Z,18.63
2022-09-12T07:14:34.458Z,18.58
2022-09-12T07:17:37.154Z,18.84
2022-09-12T07:20:39.905Z,18.93
2022-09-12T07:23:43.031Z,18.76
2022-09-12T07:26:47.112Z,18.59
2022-09-12T07:29:49.848Z,18.62
2022-09-12T07:32:55.463Z,18.98
2022-09-12T07:36:02.069Z,18.88
2022-09-12T07:39:04.872Z,18.93
2022-09-12T07:42:09.296Z,19.00
2022-09-12T07:45:12.963Z,18.89
2022-09-12T07:48:16.411Z,18.92
2022-09-12T07:51:21.919Z,18.86
2022-09-12T07:54:25.101Z,18.95
2022-09-12T07:57:29.563Z,18.76
2022-09-12T08:00:35.933Z,18.77
2022-09-12T08:03:38.857Z,18.77
2022-09-12T08:06:41.714Z,18.92
2022-09-12T08:09:50.095Z,18.92
2022-09-12T08:12:54.172Z,18.71
2022-09-12T08:15:59.913Z,18.88
2022-09-12T08:19:03.132Z,18.73
2022-09-12T08:22:06.093Z,18.83
2022-09-12T08:25:09.145Z,18.80
2022-09-12T08:28:13.443Z,18.81
2022-09-12T08:31:17.606Z,18.93
2022-09-12T08:34:21.127Z,18.86
2022-09-12T08:37:24.063Z,18.84
2022-09-12T08:40:27.014Z,18.82
2022-09-12T08:43:37.776Z,18.81
2022-09-12T08:46:45.309Z,18.79
2022-09-12T08:49:52.767Z,18.92
2022-09-12T08:52:58.753Z,18.98
2022-09-12T08:56:02.019Z,18.87
2022-09-12T08:59:06.145Z,18.96
2022-09-12T09:02:18.633Z,19.15
2022-09-12T09:05:24.658Z,19.12
2022-09-12T09:08:43.083Z,19.14
2022-09-12T09:11:53.677Z,19.15
2022-09-12T09:15:12.462Z,19.15
2022-09-12T09:18:19.710Z,19.13
2022-09-12T09:21:24.908Z,19.22
2022-09-12T09:24:29.792Z,19.14
2022-09-12T09:27:41.062Z,19.13
2022-09-12T09:30:46.019Z,19.40
2022-09-12T09:33:50.920Z,19.35
2022-09-12T09:36:58.565Z,19.35
2022-09-12T09:40:06.685Z,19.36
2022-09-12T09:43:16.245Z,19.61
2022-09-12T09:46:20.417Z,19.60
2022-09-12T09:49:23.909Z,19.76
2022-09-12T09:52:29.529Z,19.79
2022-09-12T09:55:36.404Z,19.94
2022-09-12T09:58:41.170Z,19.89
2022-09-12T10:01:49.505Z,20.00
2022-09-12T10:04:55.292Z,20.03
2022-09-12T10:07:58.465Z,20.09
2022-09-12T10:11:03.253Z,20.10
2022-09-12T10:14:09.039Z,20.17
2022-09-12T10:17:33.235Z,20.18
2022-09-12T10:20:40.368Z,20.19
2022-09-12T10:23:43.585Z,20.23
2022-09-12T10:26:47.671Z,20.18
2022-09-12T10:29:51.927Z,20.24
2022-09-12T10:37:04.051Z,20.24
2022-09-12T10:40:08.013Z,20.24
2022-09-12T10:43:18.037Z,20.30
2022-09-12T10:46:30.473Z,20.33
2022-09-12T10:49:38.117Z,20.34
2022-09-12T10:52:42.682Z,20.35
2022-09-12T10:55:53.928Z,20.42
2022-09-12T10:59:12.065Z,20.42
2022-09-12T11:02:16.445Z,20.41
2022-09-12T11:05:23.827Z,20.41
2022-09-12T11:08:50.290Z,20.43
2022-09-12T11:12:02.485Z,20.44
2022-09-12T11:15:11.343Z,20.47
2022-09-12T11:18:19.471Z,20.48
2022-09-12T11:21:30.842Z,20.50
2022-09-12T11:24:39.421Z,20.50
2022-09-12T11:28:03.285Z,20.51
2022-09-12T11:31:18.430Z,20.52
2022-09-12T11:34:26.954Z,20.58
2022-09-12T11:37:53.921Z,20.61
2022-09-12T11:40:59.886Z,20.70
2022-09-12T11:44:09.862Z,20.74
2022-09-12T11:47:15.416Z,20.79
2022-09-12T11:50:21.493Z,20.79
2022-09-12T11:53:27.438Z,20.87
2022-09-12T11:56:30.480Z,20.90
2022-09-12T11:59:36.483Z,21.02
2022-09-12T12:02:42.477Z,21.07
2022-09-12T12:05:52.291Z,21.08
2022-09-12T12:08:55.134Z,21.22
2022-09-12T12:11:59.905Z,21.24
2022-09-12T12:15:03.381Z,21.12
2022-09-12T12:18:10.247Z,21.10
2022-09-12T12:21:20.859Z,21.18
2022-09-12T12:24:25.128Z,21.18
2022-09-12T12:27:42.912Z,21.19
2022-09-12T12:31:06.203Z,21.14
2022-09-12T12:34:27.839Z,21.16
2022-09-12T12:37:51.422Z,21.36
2022-09-12T12:40:54.467Z,21.32
2022-09-12T12:43:57.822Z,21.42
2022-09-12T12:47:15.050Z,21.49
2022-09-12T12:50:26.497Z,21.48
2022-09-12T12:53:29.639Z,21.53
2022-09-12T12:56:40.915Z,21.69
2022-09-12T12:59:48.323Z,21.70
2022-09-12T13:02:52.927Z,21.73
2022-09-12T13:06:02.222Z,21.80
2022-09-12T13:09:05.822Z,21.74
2022-09-12T13:12:09.709Z,21.70
2022-09-12T13:15:27.329Z,21.71
2022-09-12T13:18:33.820Z,21.76
2022-09-12T13:21:38.473Z,21.70
2022-09-12T13:24:44.359Z,21.67
2022-09-12T13:27:57.638Z,21.65
2022-09-12T13:31:03.810Z,21.68
2022-09-12T13:34:08.013Z,21.79
2022-09-12T13:37:28.865Z,21.88
2022-09-12T13:40:34.565Z,21.92
2022-09-12T13:43:40.354Z,21.97
2022-09-12T13:46:43.965Z,21.99
2022-09-12T13:49:47.053Z,22.04
2022-09-12T13:52:53.374Z,22.00
2022-09-12T13:55:58.573Z,21.98
2022-09-12T13:59:02.508Z,21.97
2022-09-12T14:02:18.283Z,21.96
2022-09-12T14:05:22.175Z,21.92
2022-09-12T14:08:27.047Z,21.88
2022-09-12T14:11:30.948Z,21.89
2022-09-12T14:14:36.063Z,21.81
2022-09-12T14:17:41.199Z,21.77
2022-09-12T14:20:44.571Z,21.71
2022-09-12T14:23:50.372Z,21.75
2022-09-12T14:26:56.886Z,21.78
2022-09-12T14:30:03.113Z,21.74
2022-09-12T14:33:07.623Z,21.76
2022-09-12T14:36:13.205Z,21.83
2022-09-12T14:39:23.439Z,21.91
2022-09-12T14:42:28.655Z,21.83
2022-09-12T14:45:33.171Z,21.76
2022-09-12T14:48:37.521Z,21.76
2022-09-12T14:51:41.277Z,21.78
2022-09-12T14:54:45.798Z,21.68
2022-09-12T14:57:50.637Z,21.52
2022-09-12T15:00:54.586Z,21.48
2022-09-12T15:03:57.766Z,21.49
2022-09-12T15:07:00.645Z,21.43
2022-09-12T15:10:07.240Z,21.45
2022-09-12T15:13:15.458Z,21.30
2022-09-12T15:16:18.353Z,21.23
2022-09-12T15:19:21.310Z,21.31
2022-09-12T15:22:26.170Z,21.37
2022-09-12T15:25:30.317Z,21.19
2022-09-12T15:28:33.902Z,21.13
2022-09-12T15:31:36.700Z,21.11
2022-09-12T15:34:39.609Z,21.16
2022-09-12T15:37:42.432Z,21.17
2022-09-12T15:40:53.649Z,20.98
2022-09-12T15:43:56.833Z,20.91
2022-09-12T15:46:59.533Z,20.92
2022-09-12T16:02:36.167Z,20.42
2022-09-12T16:05:39.080Z,20.41
2022-09-12T16:08:41.876Z,20.36
2022-09-12T16:11:45.121Z,20.23
2022-09-12T16:14:47.760Z,20.20
2022-09-12T16:17:51.873Z,20.10
2022-09-12T16:20:54.801Z,19.96
2022-09-12T16:23:57.515Z,20.05
2022-09-12T16:27:01.243Z,20.04
2022-09-12T16:30:07.045Z,19.97
2022-09-12T16:33:11.046Z,19.78
2022-09-12T16:36:17.842Z,19.72
2022-09-12T16:39:21.724Z,19.77
2022-09-12T16:42:24.413Z,19.82
2022-09-12T16:45:27.134Z,19.69
2022-09-12T16:48:31.468Z,19.65
2022-09-12T16:51:35.930Z,19.60
2022-09-12T16:54:38.617Z,19.52
2022-09-12T16:57:41.354Z,19.44
2022-09-12T17:00:44.728Z,19.54
2022-09-12T17:03:49.541Z,19.34
2022-09-12T17:06:52.729Z,19.29
2022-09-12T17:09:55.685Z,19.26
2022-09-12T17:12:58.850Z,19.39
2022-09-12T17:16:02.198Z,19.14
2022-09-12T17:19:07.417Z,18.94
2022-09-12T17:22:10.211Z,18.87
2022-09-12T17:25:13.283Z,18.68
2022-09-12T17:28:16.130Z,18.81
2022-09-12T17:31:22.483Z,18.78
2022-09-12T17:34:27.311Z,18.59
2022-09-12T17:37:31.996Z,18.71
2022-09-12T17:40:58.099Z,18.54
2022-09-12T17:43:59.810Z,18.68
2022-09-12T17:47:03.678Z,18.60
2022-09-12T17:50:30.462Z,18.57
2022-09-12T17:53:31.773Z,18.79
2022-09-12T17:56:39.628Z,18.98
2022-09-12T17:59:42.381Z,19.06
2022-09-12T18:02:47.198Z,19.03
2022-09-12T18:05:54.147Z,19.17
2022-09-12T18:09:00.361Z,18.94
2022-09-12T18:12:03.990Z,18.91
2022-09-12T18:15:08.433Z,19.02
2022-09-12T18:18:14.776Z,19.00
2022-09-12T18:21:31.578Z,18.69
2022-09-12T18:24:36.878Z,18.65
2022-09-12T18:27:42.297Z,18.71
2022-09-12T18:30:50.541Z,18.73
2022-09-12T18:33:53.890Z,18.87
2022-09-12T18:37:05.740Z,18.72
2022-09-12T18:40:17.279Z,18.61
2022-09-12T18:43:39.301Z,18.70
2022-09-12T18:46:42.665Z,18.89
2022-09-12T18:49:49.163Z,19.23
2022-09-12T18:52:59.110Z,19.11
2022-09-12T18:56:04.754Z,19.16
2022-09-12T18:59:15.244Z,19.09
2022-09-12T19:02:18.689Z,19.08
2022-09-12T19:05:23.453Z,19.03
2022-09-12T19:08:30.529Z,19.06
2022-09-12T19:11:33.661Z,19.09
2022-09-12T19:14:37.550Z,18.94
2022-09-12T19:17:41.191Z,19.29
2022-09-12T19:20:44.294Z,19.13
2022-09-12T19:23:49.874Z,19.11
2022-09-12T19:26:52.637Z,19.22
2022-09-12T19:29:55.445Z,19.30
2022-09-12T19:32:58.366Z,19.43
2022-09-12T19:36:02.682Z,19.62
2022-09-12T19:39:07.673Z,19.28
2022-09-12T19:42:10.940Z,19.14
2022-09-12T19:45:21.151Z,19.23
2022-09-12T19:48:24.143Z,18.96
2022-09-12T19:51:27.246Z,19.27
2022-09-12T19:54:31.303Z,19.48
2022-09-12T19:57:34.156Z,19.42
2022-09-12T20:00:37.477Z,19.45
2022-09-12T20:03:40.892Z,19.62
2022-09-12T20:06:43.658Z,19.43
2022-09-12T20:09:47.728Z,19.40
2022-09-12T20:12:50.677Z,19.33
2022-09-12T20:15:53.560Z,19.42
2022-09-12T20:18:57.250Z,19.56
2022-09-12T20:21:59.895Z,19.53
2022-09-12T20:25:04.424Z,19.47
2022-09-12T20:28:07.120Z,19.44
2022-09-12T20:31:12.383Z,19.39
2022-09-12T20:34:15.863Z,19.40
2022-09-12T20:37:18.806Z,19.34
2022-09-12T20:40:22.854Z,19.43
2022-09-12T20:43:25.550Z,19.44
2022-09-12T20:46:28.946Z,19.47
2022-09-12T20:49:31.680Z,19.38
2022-09-12T20:52:34.359Z,19.60
2022-09-12T20:55:38.721Z,19.37
2022-09-12T20:58:44.029Z,19.44
2022-09-12T21:01:47.777Z,19.50
2022-09-12T21:04:51.180Z,19.33
2022-09-12T21:07:53.988Z,19.37
2022-09-12T21:10:58.924Z,19.15
2022-09-12T21:14:01.604Z,19.16
2022-09-12T21:17:05.329Z,19.11
2022-09-12T21:20:11.385Z,19.38
2022-09-12T21:23:14.672Z,19.20
2022-09-12T21:26:19.044Z,19.31
2022-09-12T21:29:21.850Z,19.22
2022-09-12T21:32:24.582Z,19.10
2022-09-12T21:35:27.263Z,19.36
2022-09-12T21:38:30.508Z,19.22
2022-09-12T21:41:34.595Z,19.16
2022-09-12T21:44:37.268Z,19.22
2022-09-12T21:47:40.201Z,19.04
2022-09-12T21:50:42.861Z,19.00
2022-09-12T21:53:45.670Z,19.10
2022-09-12T21:56:49.669Z,19.11
2022-09-12T21:59:52.284Z,19.11
2022-09-12T22:02:54.965Z,19.18
2022-09-12T22:05:57.909Z,19.40
2022-09-12T22:09:01.038Z,19.26
2022-09-12T22:12:05.314Z,19.09
2022-09-12T22:15:29.306Z,18.99
2022-09-12T22:18:31.157Z,18.93
2022-09-12T22:21:33.861Z,18.94
2022-09-12T22:24:35.559Z,19.08
2022-09-12T22:27:40.443Z,19.03
2022-09-12T22:30:47.867Z,18.95
2022-09-12T22:33:51.928Z,18.88
2022-09-12T22:36:55.040Z,18.79
2022-09-12T22:39:57.777Z,18.88
2022-09-12T22:43:02.210Z,18.93
2022-09-12T22:46:07.186Z,19.01
2022-09-12T22:49:09.975Z,18.80
2022-09-12T22:52:12.888Z,18.74
2022-09-12T22:55:15.608Z,18.65
2022-09-12T22:58:19.599Z,18.70
2022-09-12T23:01:22.956Z,18.65
2022-09-12T23:04:25.707Z,18.49
2022-09-12T23:07:28.592Z,18.56
2022-09-12T23:10:32.167Z,18.41
2022-09-12T23:13:36.467Z,18.40
2022-09-12T23:16:39.427Z,18.60
2022-09-12T23:19:42.463Z,18.57
2022-09-12T23:22:45.254Z,18.49
2022-09-12T23:25:47.985Z,18.45
2022-09-12T23:28:53.188Z,18.53
2022-09-12T23:31:55.903Z,18.47
2022-09-12T23:34:59.058Z,18.50
2022-09-12T23:38:01.759Z,18.40
2022-09-12T23:41:05.116Z,18.41
2022-09-12T23:44:09.288Z,18.49
2022-09-12T23:47:11.948Z,18.44
2022-09-12T23:50:14.712Z,18.48
2022-09-12T23:53:18.521Z,18.60
2022-09-12T23:56:22.173Z,18.34
2022-09-12T23:59:26.196Z,18.49
